sensor_id;sensor_type;location;lat;lon;timestamp;pressure;altitude;pressure_sealevel;temperature;humidity
7834;BME280;3962;42.696;23.354;2023-02-20T00:01:33;95483.16;;;11.04;61.62
7834;BME280;3962;42.696;23.354;2023-02-20T00:04:00;95483.16;;;11.04;61.69
7834;BME280;3962;42.696;23.354;2023-02-20T00:06:28;95491.72;;;10.98;61.99
7834;BME280;3962;42.696;23.354;2023-02-20T00:08:54;95487.69;;;10.94;62.12
7834;BME280;3962;42.696;23.354;2023-02-20T00:11:21;95487.84;;;10.83;62.62
7834;BME280;3962;42.696;23.354;2023-02-20T00:13:48;95480.53;;;10.85;63.03
7834;BME280;3962;42.696;23.354;2023-02-20T00:16:15;95487.56;;;10.87;62.69
7834;BME280;3962;42.696;23.354;2023-02-20T00:18:43;95483.50;;;10.82;63.06
7834;BME280;3962;42.696;23.354;2023-02-20T00:21:10;95482.16;;;10.69;63.27
7834;BME280;3962;42.696;23.354;2023-02-20T00:23:39;95489.41;;;10.77;63.54
7834;BME280;3962;42.696;23.354;2023-02-20T00:26:08;95486.34;;;10.72;63.68
7834;BME280;3962;42.696;23.354;2023-02-20T00:28:34;95482.56;;;10.65;64.04
7834;BME280;3962;42.696;23.354;2023-02-20T00:31:03;95496.56;;;10.67;63.98
7834;BME280;3962;42.696;23.354;2023-02-20T00:33:30;95479.63;;;10.68;64.07
7834;BME280;3962;42.696;23.354;2023-02-20T00:35:58;95490.00;;;10.61;64.37
7834;BME280;3962;42.696;23.354;2023-02-20T00:38:24;95490.56;;;10.65;64.43
7834;BME280;3962;42.696;23.354;2023-02-20T00:40:54;95472.19;;;10.62;65.03
7834;BME280;3962;42.696;23.354;2023-02-20T00:43:20;95471.38;;;10.52;65.16
7834;BME280;3962;42.696;23.354;2023-02-20T00:45:48;95470.13;;;10.56;64.82
7834;BME280;3962;42.696;23.354;2023-02-20T00:48:16;95469.56;;;10.52;65.04
7834;BME280;3962;42.696;23.354;2023-02-20T00:50:43;95484.00;;;10.40;65.76
7834;BME280;3962;42.696;23.354;2023-02-20T00:53:10;95495.19;;;10.34;66.17
7834;BME280;3962;42.696;23.354;2023-02-20T00:55:40;95485.69;;;10.32;66.06
7834;BME280;3962;42.696;23.354;2023-02-20T01:04:52;95496.75;;;10.27;66.70
7834;BME280;3962;42.696;23.354;2023-02-20T01:07:21;95511.59;;;10.20;67.01
7834;BME280;3962;42.696;23.354;2023-02-20T01:09:49;95518.44;;;10.23;67.43
7834;BME280;3962;42.696;23.354;2023-02-20T01:12:31;95515.78;;;10.23;67.71
7834;BME280;3962;42.696;23.354;2023-02-20T01:15:05;95525.00;;;10.19;67.44
7834;BME280;3962;42.696;23.354;2023-02-20T01:17:32;95528.91;;;10.15;67.49
7834;BME280;3962;42.696;23.354;2023-02-20T01:20:02;95532.00;;;10.10;67.72
7834;BME280;3962;42.696;23.354;2023-02-20T01:22:37;95542.22;;;10.15;67.72
7834;BME280;3962;42.696;23.354;2023-02-20T01:25:04;95556.91;;;10.09;68.07
7834;BME280;3962;42.696;23.354;2023-02-20T01:27:31;95549.34;;;10.05;68.31
7834;BME280;3962;42.696;23.354;2023-02-20T01:29:58;95568.25;;;10.11;68.09
7834;BME280;3962;42.696;23.354;2023-02-20T01:32:26;95554.25;;;10.09;68.16
7834;BME280;3962;42.696;23.354;2023-02-20T01:34:53;95553.00;;;10.13;68.16
7834;BME280;3962;42.696;23.354;2023-02-20T01:37:21;95553.16;;;10.21;68.26
7834;BME280;3962;42.696;23.354;2023-02-20T01:43:11;95547.28;;;10.18;68.30
7834;BME280;3962;42.696;23.354;2023-02-20T01:45:39;95543.06;;;10.15;68.70
7834;BME280;3962;42.696;23.354;2023-02-20T01:48:10;95560.28;;;10.21;68.66
7834;BME280;3962;42.696;23.354;2023-02-20T01:50:43;95549.09;;;10.27;68.66
7834;BME280;3962;42.696;23.354;2023-02-20T01:53:15;95541.25;;;10.25;68.95
7834;BME280;3962;42.696;23.354;2023-02-20T01:55:47;95547.13;;;10.29;69.19
7834;BME280;3962;42.696;23.354;2023-02-20T01:58:18;95541.81;;;10.38;68.71
7834;BME280;3962;42.696;23.354;2023-02-20T02:00:47;95535.38;;;10.31;69.06
7834;BME280;3962;42.696;23.354;2023-02-20T02:03:17;95552.28;;;10.21;69.23
7834;BME280;3962;42.696;23.354;2023-02-20T02:05:47;95549.94;;;10.18;69.86
7834;BME280;3962;42.696;23.354;2023-02-20T02:08:17;95549.09;;;10.08;70.03
7834;BME280;3962;42.696;23.354;2023-02-20T02:10:49;95535.78;;;10.08;69.95
7834;BME280;3962;42.696;23.354;2023-02-20T02:13:23;95544.00;;;9.95;70.60
7834;BME280;3962;42.696;23.354;2023-02-20T02:15:50;95548.53;;;10.04;70.56
7834;BME280;3962;42.696;23.354;2023-02-20T02:18:38;95550.69;;;9.99;70.38
7834;BME280;3962;42.696;23.354;2023-02-20T02:21:49;95546.88;;;9.83;70.06
7834;BME280;3962;42.696;23.354;2023-02-20T02:24:42;95548.03;;;9.80;69.64
7834;BME280;3962;42.696;23.354;2023-02-20T02:27:45;95558.31;;;9.74;70.24
7834;BME280;3962;42.696;23.354;2023-02-20T02:30:34;95577.31;;;9.60;70.40
7834;BME280;3962;42.696;23.354;2023-02-20T02:33:28;95568.44;;;9.50;70.02
7834;BME280;3962;42.696;23.354;2023-02-20T02:36:18;95568.09;;;9.34;70.53
7834;BME280;3962;42.696;23.354;2023-02-20T02:38:58;95559.78;;;9.18;71.04
7834;BME280;3962;42.696;23.354;2023-02-20T02:41:34;95553.06;;;9.14;71.40
7834;BME280;3962;42.696;23.354;2023-02-20T02:44:11;95563.41;;;9.17;71.27
7834;BME280;3962;42.696;23.354;2023-02-20T02:46:43;95575.00;;;9.16;71.35
7834;BME280;3962;42.696;23.354;2023-02-20T02:49:19;95574.81;;;9.08;72.10
7834;BME280;3962;42.696;23.354;2023-02-20T02:51:49;95554.63;;;8.96;72.39
7834;BME280;3962;42.696;23.354;2023-02-20T02:54:20;95585.53;;;8.97;72.12
7834;BME280;3962;42.696;23.354;2023-02-20T02:56:52;95589.53;;;8.91;72.16
7834;BME280;3962;42.696;23.354;2023-02-20T02:59:22;95594.72;;;8.93;72.13
7834;BME280;3962;42.696;23.354;2023-02-20T03:01:54;95610.25;;;8.97;72.69
7834;BME280;3962;42.696;23.354;2023-02-20T03:04:25;95613.88;;;8.96;72.63
7834;BME280;3962;42.696;23.354;2023-02-20T03:06:58;95614.84;;;8.95;73.11
7834;BME280;3962;42.696;23.354;2023-02-20T03:09:27;95605.19;;;8.94;72.86
7834;BME280;3962;42.696;23.354;2023-02-20T03:11:57;95605.63;;;8.99;73.27
7834;BME280;3962;42.696;23.354;2023-02-20T03:14:29;95608.94;;;8.92;73.08
7834;BME280;3962;42.696;23.354;2023-02-20T03:17:29;95610.44;;;8.85;73.99
7834;BME280;3962;42.696;23.354;2023-02-20T03:20:00;95600.91;;;8.82;73.53
7834;BME280;3962;42.696;23.354;2023-02-20T03:22:35;95603.31;;;8.85;73.62
7834;BME280;3962;42.696;23.354;2023-02-20T03:25:09;95605.41;;;8.82;73.45
7834;BME280;3962;42.696;23.354;2023-02-20T03:27:43;95611.59;;;8.71;73.68
7834;BME280;3962;42.696;23.354;2023-02-20T03:30:16;95634.13;;;8.77;73.31
7834;BME280;3962;42.696;23.354;2023-02-20T03:32:52;95648.34;;;8.76;73.63
7834;BME280;3962;42.696;23.354;2023-02-20T03:35:39;95640.38;;;8.76;72.66
7834;BME280;3962;42.696;23.354;2023-02-20T03:41:49;95639.34;;;8.88;72.46
7834;BME280;3962;42.696;23.354;2023-02-20T03:44:34;95634.78;;;8.90;72.11
7834;BME280;3962;42.696;23.354;2023-02-20T03:47:06;95631.97;;;8.91;71.27
7834;BME280;3962;42.696;23.354;2023-02-20T03:49:40;95628.75;;;8.88;71.71
7834;BME280;3962;42.696;23.354;2023-02-20T03:52:10;95623.69;;;8.85;71.74
7834;BME280;3962;42.696;23.354;2023-02-20T03:54:37;95623.38;;;8.78;72.01
7834;BME280;3962;42.696;23.354;2023-02-20T03:57:09;95621.94;;;8.74;72.27
7834;BME280;3962;42.696;23.354;2023-02-20T03:59:39;95627.91;;;8.67;72.20
7834;BME280;3962;42.696;23.354;2023-02-20T04:02:11;95628.00;;;8.65;72.07
7834;BME280;3962;42.696;23.354;2023-02-20T04:04:47;95625.25;;;8.67;72.28
7834;BME280;3962;42.696;23.354;2023-02-20T04:07:18;95636.44;;;8.70;71.83
7834;BME280;3962;42.696;23.354;2023-02-20T04:09:50;95652.16;;;8.62;71.87
7834;BME280;3962;42.696;23.354;2023-02-20T04:12:22;95657.47;;;8.62;72.13
7834;BME280;3962;42.696;23.354;2023-02-20T04:14:53;95654.66;;;8.64;72.22
7834;BME280;3962;42.696;23.354;2023-02-20T04:17:23;95639.00;;;8.61;72.23
7834;BME280;3962;42.696;23.354;2023-02-20T04:19:52;95653.25;;;8.60;72.27
7834;BME280;3962;42.696;23.354;2023-02-20T04:22:24;95613.31;;;8.61;71.91
7834;BME280;3962;42.696;23.354;2023-02-20T04:24:56;95645.22;;;8.71;72.39
7834;BME280;3962;42.696;23.354;2023-02-20T04:30:51;95659.47;;;8.70;72.72
7834;BME280;3962;42.696;23.354;2023-02-20T04:33:19;95659.75;;;8.56;72.98
7834;BME280;3962;42.696;23.354;2023-02-20T04:35:46;95648.91;;;8.59;72.76
7834;BME280;3962;42.696;23.354;2023-02-20T04:38:13;95639.19;;;8.48;72.86
7834;BME280;3962;42.696;23.354;2023-02-20T04:40:43;95654.72;;;8.53;73.04
7834;BME280;3962;42.696;23.354;2023-02-20T04:43:10;95659.91;;;8.54;73.58
7834;BME280;3962;42.696;23.354;2023-02-20T04:45:40;95630.38;;;8.48;73.66
7834;BME280;3962;42.696;23.354;2023-02-20T04:48:10;95662.72;;;8.42;73.32
7834;BME280;3962;42.696;23.354;2023-02-20T04:50:37;95661.47;;;8.46;73.03
7834;BME280;3962;42.696;23.354;2023-02-20T04:53:09;95672.84;;;8.37;72.79
7834;BME280;3962;42.696;23.354;2023-02-20T04:55:36;95674.63;;;8.36;72.81
7834;BME280;3962;42.696;23.354;2023-02-20T04:58:03;95672.72;;;8.38;72.45
7834;BME280;3962;42.696;23.354;2023-02-20T05:00:31;95664.88;;;8.37;72.66
7834;BME280;3962;42.696;23.354;2023-02-20T05:02:57;95689.00;;;8.34;72.03
7834;BME280;3962;42.696;23.354;2023-02-20T05:05:27;95695.25;;;8.33;70.58
7834;BME280;3962;42.696;23.354;2023-02-20T05:07:55;95683.56;;;8.35;70.58
7834;BME280;3962;42.696;23.354;2023-02-20T05:10:24;95696.38;;;8.30;69.57
7834;BME280;3962;42.696;23.354;2023-02-20T05:12:51;95685.03;;;8.28;69.35
7834;BME280;3962;42.696;23.354;2023-02-20T05:15:19;95683.34;;;8.27;69.39
7834;BME280;3962;42.696;23.354;2023-02-20T05:17:45;95677.81;;;8.30;68.80
7834;BME280;3962;42.696;23.354;2023-02-20T05:20:13;95683.59;;;8.24;68.14
7834;BME280;3962;42.696;23.354;2023-02-20T05:22:41;95678.91;;;8.28;67.98
7834;BME280;3962;42.696;23.354;2023-02-20T05:25:09;95679.13;;;8.25;66.29
7834;BME280;3962;42.696;23.354;2023-02-20T05:27:36;95697.69;;;8.25;66.51
7834;BME280;3962;42.696;23.354;2023-02-20T05:30:05;95702.16;;;8.24;66.43
7834;BME280;3962;42.696;23.354;2023-02-20T05:32:32;95715.53;;;8.23;66.67
7834;BME280;3962;42.696;23.354;2023-02-20T05:34:59;95728.06;;;8.21;66.54
7834;BME280;3962;42.696;23.354;2023-02-20T05:37:26;95733.47;;;8.19;66.73
7834;BME280;3962;42.696;23.354;2023-02-20T05:39:55;95740.78;;;8.16;67.41
7834;BME280;3962;42.696;23.354;2023-02-20T05:42:22;95740.47;;;8.20;67.32
7834;BME280;3962;42.696;23.354;2023-02-20T05:44:49;95739.13;;;8.26;67.83
7834;BME280;3962;42.696;23.354;2023-02-20T05:47:16;95722.41;;;8.25;67.53
7834;BME280;3962;42.696;23.354;2023-02-20T05:49:43;95735.97;;;8.10;68.36
7834;BME280;3962;42.696;23.354;2023-02-20T05:52:11;95739.38;;;8.23;68.31
7834;BME280;3962;42.696;23.354;2023-02-20T05:54:39;95737.22;;;8.28;67.98
7834;BME280;3962;42.696;23.354;2023-02-20T05:57:10;95737.66;;;8.33;68.51
7834;BME280;3962;42.696;23.354;2023-02-20T05:59:37;95740.47;;;8.31;68.82
7834;BME280;3962;42.696;23.354;2023-02-20T06:02:04;95720.94;;;8.32;69.27
7834;BME280;3962;42.696;23.354;2023-02-20T06:04:31;95733.59;;;8.29;68.98
7834;BME280;3962;42.696;23.354;2023-02-20T06:06:58;95743.97;;;8.21;68.95
7834;BME280;3962;42.696;23.354;2023-02-20T06:09:25;95749.88;;;8.24;68.76
7834;BME280;3962;42.696;23.354;2023-02-20T06:11:53;95753.22;;;8.37;67.90
7834;BME280;3962;42.696;23.354;2023-02-20T06:14:23;95751.97;;;8.52;68.23
7834;BME280;3962;42.696;23.354;2023-02-20T06:16:50;95757.66;;;8.48;66.75
7834;BME280;3962;42.696;23.354;2023-02-20T06:19:18;95754.75;;;8.62;66.27
7834;BME280;3962;42.696;23.354;2023-02-20T06:21:46;95755.56;;;8.73;65.10
7834;BME280;3962;42.696;23.354;2023-02-20T06:24:14;95760.81;;;8.84;64.34
7834;BME280;3962;42.696;23.354;2023-02-20T06:26:41;95766.38;;;8.81;63.71
7834;BME280;3962;42.696;23.354;2023-02-20T06:29:09;95772.03;;;8.88;62.67
7834;BME280;3962;42.696;23.354;2023-02-20T06:31:37;95763.44;;;8.95;63.07
7834;BME280;3962;42.696;23.354;2023-02-20T06:34:05;95779.38;;;8.95;63.29
7834;BME280;3962;42.696;23.354;2023-02-20T06:36:34;95787.66;;;9.02;62.75
7834;BME280;3962;42.696;23.354;2023-02-20T06:39:03;95772.94;;;9.09;62.50
7834;BME280;3962;42.696;23.354;2023-02-20T06:41:30;95766.97;;;9.16;60.96
7834;BME280;3962;42.696;23.354;2023-02-20T06:43:57;95779.75;;;9.22;61.20
7834;BME280;3962;42.696;23.354;2023-02-20T06:46:24;95764.59;;;9.13;61.80
7834;BME280;3962;42.696;23.354;2023-02-20T06:48:54;95759.91;;;9.06;61.16
7834;BME280;3962;42.696;23.354;2023-02-20T06:51:24;95772.72;;;9.01;61.67
7834;BME280;3962;42.696;23.354;2023-02-20T06:53:51;95758.84;;;8.97;61.79
7834;BME280;3962;42.696;23.354;2023-02-20T06:56:21;95769.09;;;9.02;61.98
7834;BME280;3962;42.696;23.354;2023-02-20T06:58:50;95772.72;;;9.01;61.13
7834;BME280;3962;42.696;23.354;2023-02-20T07:01:18;95766.50;;;8.91;61.58
7834;BME280;3962;42.696;23.354;2023-02-20T07:03:46;95777.34;;;8.88;61.59
7834;BME280;3962;42.696;23.354;2023-02-20T07:06:14;95769.38;;;8.88;61.77
7834;BME280;3962;42.696;23.354;2023-02-20T07:08:41;95754.81;;;8.82;61.76
7834;BME280;3962;42.696;23.354;2023-02-20T07:11:09;95769.19;;;9.00;61.07
7834;BME280;3962;42.696;23.354;2023-02-20T07:13:37;95776.16;;;9.12;60.68
7834;BME280;3962;42.696;23.354;2023-02-20T07:16:05;95785.31;;;9.19;60.29
7834;BME280;3962;42.696;23.354;2023-02-20T07:18:32;95779.13;;;9.30;59.82
7834;BME280;3962;42.696;23.354;2023-02-20T07:20:59;95777.75;;;9.35;58.67
7834;BME280;3962;42.696;23.354;2023-02-20T07:23:27;95725.81;;;9.42;58.54
7834;BME280;3962;42.696;23.354;2023-02-20T07:25:54;95779.31;;;9.38;58.47
7834;BME280;3962;42.696;23.354;2023-02-20T07:28:25;95778.94;;;9.42;57.86
7834;BME280;3962;42.696;23.354;2023-02-20T07:30:52;95767.47;;;9.42;57.27
7834;BME280;3962;42.696;23.354;2023-02-20T07:33:24;95798.13;;;9.46;57.23
7834;BME280;3962;42.696;23.354;2023-02-20T07:35:52;95798.50;;;9.41;57.10
7834;BME280;3962;42.696;23.354;2023-02-20T07:38:25;95791.25;;;9.43;56.45
7834;BME280;3962;42.696;23.354;2023-02-20T07:41:18;95777.97;;;9.64;55.68
7834;BME280;3962;42.696;23.354;2023-02-20T07:44:03;95809.44;;;9.48;55.55
7834;BME280;3962;42.696;23.354;2023-02-20T07:52:50;95804.59;;;9.53;54.93
7834;BME280;3962;42.696;23.354;2023-02-20T07:55:40;95830.09;;;9.44;54.60
7834;BME280;3962;42.696;23.354;2023-02-20T07:58:31;95809.03;;;9.32;54.46
7834;BME280;3962;42.696;23.354;2023-02-20T08:01:04;95830.59;;;9.38;54.58
7834;BME280;3962;42.696;23.354;2023-02-20T08:03:53;95830.44;;;9.51;54.20
7834;BME280;3962;42.696;23.354;2023-02-20T08:06:20;95832.00;;;9.53;53.92
7834;BME280;3962;42.696;23.354;2023-02-20T08:08:53;95802.47;;;9.47;54.43
7834;BME280;3962;42.696;23.354;2023-02-20T08:11:21;95816.06;;;9.53;54.34
7834;BME280;3962;42.696;23.354;2023-02-20T08:13:50;95812.50;;;9.43;53.97
7834;BME280;3962;42.696;23.354;2023-02-20T08:16:21;95826.94;;;9.50;53.80
7834;BME280;3962;42.696;23.354;2023-02-20T08:18:48;95836.69;;;9.61;53.69
7834;BME280;3962;42.696;23.354;2023-02-20T08:21:15;95817.25;;;9.81;52.73
7834;BME280;3962;42.696;23.354;2023-02-20T08:23:42;95824.00;;;9.85;52.48
7834;BME280;3962;42.696;23.354;2023-02-20T08:26:09;95825.22;;;10.22;52.20
7834;BME280;3962;42.696;23.354;2023-02-20T08:28:36;95808.59;;;11.17;49.31
7834;BME280;3962;42.696;23.354;2023-02-20T08:31:04;95830.22;;;11.52;48.27
7834;BME280;3962;42.696;23.354;2023-02-20T08:33:31;95830.00;;;12.39;46.72
7834;BME280;3962;42.696;23.354;2023-02-20T08:35:58;95833.72;;;13.46;44.60
7834;BME280;3962;42.696;23.354;2023-02-20T08:38:27;95828.84;;;13.15;43.90
7834;BME280;3962;42.696;23.354;2023-02-20T08:40:55;95828.19;;;14.00;42.94
7834;BME280;3962;42.696;23.354;2023-02-20T08:43:24;95827.69;;;14.65;41.75
7834;BME280;3962;42.696;23.354;2023-02-20T08:45:51;95834.84;;;13.96;42.22
7834;BME280;3962;42.696;23.354;2023-02-20T08:48:19;95829.38;;;13.63;42.36
7834;BME280;3962;42.696;23.354;2023-02-20T08:50:46;95827.09;;;13.85;42.57
7834;BME280;3962;42.696;23.354;2023-02-20T08:53:13;95811.91;;;14.29;42.13
7834;BME280;3962;42.696;23.354;2023-02-20T08:55:40;95826.50;;;13.99;41.37
7834;BME280;3962;42.696;23.354;2023-02-20T08:58:08;95842.22;;;13.94;41.48
7834;BME280;3962;42.696;23.354;2023-02-20T09:00:35;95822.72;;;14.19;41.29
7834;BME280;3962;42.696;23.354;2023-02-20T09:03:02;95839.06;;;14.16;40.86
7834;BME280;3962;42.696;23.354;2023-02-20T09:05:33;95818.00;;;14.04;41.18
7834;BME280;3962;42.696;23.354;2023-02-20T09:08:00;95837.34;;;13.28;42.49
7834;BME280;3962;42.696;23.354;2023-02-20T09:10:28;95819.38;;;13.47;42.45
7834;BME280;3962;42.696;23.354;2023-02-20T09:12:56;95817.59;;;13.38;42.45
7834;BME280;3962;42.696;23.354;2023-02-20T09:15:23;95805.50;;;13.87;41.70
7834;BME280;3962;42.696;23.354;2023-02-20T09:17:51;95816.94;;;13.09;43.16
7834;BME280;3962;42.696;23.354;2023-02-20T09:20:19;95820.97;;;13.58;42.93
7834;BME280;3962;42.696;23.354;2023-02-20T09:22:48;95828.75;;;13.69;42.20
7834;BME280;3962;42.696;23.354;2023-02-20T09:25:16;95814.84;;;13.65;41.98
7834;BME280;3962;42.696;23.354;2023-02-20T09:27:44;95828.13;;;13.92;41.43
7834;BME280;3962;42.696;23.354;2023-02-20T09:30:15;95817.34;;;13.32;42.40
7834;BME280;3962;42.696;23.354;2023-02-20T09:32:53;95819.72;;;13.35;42.93
7834;BME280;3962;42.696;23.354;2023-02-20T09:35:22;95827.75;;;13.87;42.77
7834;BME280;3962;42.696;23.354;2023-02-20T09:37:54;95815.75;;;13.91;41.53
7834;BME280;3962;42.696;23.354;2023-02-20T09:40:25;95823.22;;;13.35;43.40
7834;BME280;3962;42.696;23.354;2023-02-20T09:43:04;95819.03;;;13.50;43.17
7834;BME280;3962;42.696;23.354;2023-02-20T09:45:40;95804.06;;;13.57;43.03
7834;BME280;3962;42.696;23.354;2023-02-20T09:48:19;95808.41;;;13.23;42.89
7834;BME280;3962;42.696;23.354;2023-02-20T09:50:51;95810.06;;;13.07;43.72
7834;BME280;3962;42.696;23.354;2023-02-20T09:53:23;95806.56;;;12.70;43.97
7834;BME280;3962;42.696;23.354;2023-02-20T09:55:54;95819.81;;;12.98;43.86
7834;BME280;3962;42.696;23.354;2023-02-20T09:58:27;95823.31;;;13.43;43.95
7834;BME280;3962;42.696;23.354;2023-02-20T10:00:57;95808.28;;;13.60;42.65
7834;BME280;3962;42.696;23.354;2023-02-20T10:03:30;95818.91;;;13.52;42.66
7834;BME280;3962;42.696;23.354;2023-02-20T10:06:00;95809.94;;;13.26;43.12
7834;BME280;3962;42.696;23.354;2023-02-20T10:08:29;95807.47;;;13.15;43.48
7834;BME280;3962;42.696;23.354;2023-02-20T10:11:00;95798.78;;;13.48;42.57
7834;BME280;3962;42.696;23.354;2023-02-20T10:13:39;95798.81;;;13.30;42.60
7834;BME280;3962;42.696;23.354;2023-02-20T10:16:16;95794.38;;;12.94;43.37
7834;BME280;3962;42.696;23.354;2023-02-20T10:18:50;95809.94;;;12.72;43.08
7834;BME280;3962;42.696;23.354;2023-02-20T10:21:32;95788.19;;;12.57;43.61
7834;BME280;3962;42.696;23.354;2023-02-20T10:24:12;95796.38;;;12.83;43.79
7834;BME280;3962;42.696;23.354;2023-02-20T10:26:47;95757.41;;;12.90;42.78
7834;BME280;3962;42.696;23.354;2023-02-20T10:29:20;95770.22;;;12.86;42.70
7834;BME280;3962;42.696;23.354;2023-02-20T10:31:50;95790.09;;;12.74;43.12
7834;BME280;3962;42.696;23.354;2023-02-20T10:34:23;95767.63;;;13.04;42.18
7834;BME280;3962;42.696;23.354;2023-02-20T10:37:01;95779.47;;;12.92;42.02
7834;BME280;3962;42.696;23.354;2023-02-20T10:39:31;95773.78;;;12.77;41.79
7834;BME280;3962;42.696;23.354;2023-02-20T10:42:09;95760.13;;;12.80;42.14
7834;BME280;3962;42.696;23.354;2023-02-20T10:44:41;95778.88;;;12.71;42.96
7834;BME280;3962;42.696;23.354;2023-02-20T10:47:15;95780.31;;;12.92;41.98
7834;BME280;3962;42.696;23.354;2023-02-20T10:49:50;95773.25;;;12.74;42.55
7834;BME280;3962;42.696;23.354;2023-02-20T10:52:23;95784.94;;;12.63;42.80
7834;BME280;3962;42.696;23.354;2023-02-20T10:54:57;95787.63;;;12.63;41.75
7834;BME280;3962;42.696;23.354;2023-02-20T10:57:31;95777.44;;;12.76;42.53
7834;BME280;3962;42.696;23.354;2023-02-20T11:00:05;95778.22;;;12.86;42.64
7834;BME280;3962;42.696;23.354;2023-02-20T11:02:35;95781.53;;;13.07;42.30
7834;BME280;3962;42.696;23.354;2023-02-20T11:05:08;95787.78;;;12.98;42.11
7834;BME280;3962;42.696;23.354;2023-02-20T11:07:37;95782.72;;;12.95;42.22
7834;BME280;3962;42.696;23.354;2023-02-20T11:10:06;95771.91;;;13.32;41.92
7834;BME280;3962;42.696;23.354;2023-02-20T11:12:35;95753.59;;;13.37;41.91
7834;BME280;3962;42.696;23.354;2023-02-20T11:15:06;95748.75;;;13.05;42.96
7834;BME280;3962;42.696;23.354;2023-02-20T11:17:33;95754.44;;;13.20;43.62
7834;BME280;3962;42.696;23.354;2023-02-20T11:20:01;95764.34;;;13.27;42.59
7834;BME280;3962;42.696;23.354;2023-02-20T11:22:41;95761.13;;;13.24;42.65
7834;BME280;3962;42.696;23.354;2023-02-20T11:25:17;95732.88;;;13.21;42.67
7834;BME280;3962;42.696;23.354;2023-02-20T11:28:08;95750.19;;;13.00;43.54
7834;BME280;3962;42.696;23.354;2023-02-20T11:30:37;95751.84;;;13.28;42.73
7834;BME280;3962;42.696;23.354;2023-02-20T11:33:10;95751.75;;;13.20;42.95
7834;BME280;3962;42.696;23.354;2023-02-20T11:35:41;95748.25;;;13.37;42.50
7834;BME280;3962;42.696;23.354;2023-02-20T11:38:23;95744.97;;;13.25;42.86
7834;BME280;3962;42.696;23.354;2023-02-20T11:41:22;95726.72;;;13.21;42.66
7834;BME280;3962;42.696;23.354;2023-02-20T11:47:15;95742.69;;;13.30;42.23
7834;BME280;3962;42.696;23.354;2023-02-20T11:49:42;95740.44;;;13.08;43.06
7834;BME280;3962;42.696;23.354;2023-02-20T11:52:15;95726.22;;;12.90;43.39
7834;BME280;3962;42.696;23.354;2023-02-20T11:54:43;95737.94;;;13.24;43.03
7834;BME280;3962;42.696;23.354;2023-02-20T11:57:23;95726.19;;;13.35;42.06
7834;BME280;3962;42.696;23.354;2023-02-20T11:59:51;95735.50;;;13.31;42.07
7834;BME280;3962;42.696;23.354;2023-02-20T12:02:33;95732.28;;;13.27;42.06
7834;BME280;3962;42.696;23.354;2023-02-20T12:05:07;95727.16;;;13.51;41.84
7834;BME280;3962;42.696;23.354;2023-02-20T12:07:38;95723.41;;;13.44;41.24
7834;BME280;3962;42.696;23.354;2023-02-20T12:10:17;95720.38;;;13.22;41.66
7834;BME280;3962;42.696;23.354;2023-02-20T12:12:46;95719.91;;;13.26;42.07
7834;BME280;3962;42.696;23.354;2023-02-20T12:15:14;95715.66;;;13.33;41.84
7834;BME280;3962;42.696;23.354;2023-02-20T12:17:52;95724.19;;;13.54;41.64
7834;BME280;3962;42.696;23.354;2023-02-20T12:20:25;95720.41;;;13.65;41.07
7834;BME280;3962;42.696;23.354;2023-02-20T12:23:01;95704.53;;;13.63;41.15
7834;BME280;3962;42.696;23.354;2023-02-20T12:25:36;95698.81;;;13.58;40.89
7834;BME280;3962;42.696;23.354;2023-02-20T12:28:15;95721.53;;;13.19;41.63
7834;BME280;3962;42.696;23.354;2023-02-20T12:30:57;95713.97;;;13.32;41.68
7834;BME280;3962;42.696;23.354;2023-02-20T12:33:45;95731.06;;;13.39;41.73
7834;BME280;3962;42.696;23.354;2023-02-20T12:36:26;95738.78;;;13.60;41.06
7834;BME280;3962;42.696;23.354;2023-02-20T12:38:58;95735.63;;;13.82;40.49
7834;BME280;3962;42.696;23.354;2023-02-20T12:41:49;95742.34;;;13.68;40.94
7834;BME280;3962;42.696;23.354;2023-02-20T12:44:29;95732.13;;;13.89;41.33
7834;BME280;3962;42.696;23.354;2023-02-20T12:47:06;95728.03;;;14.20;40.16
7834;BME280;3962;42.696;23.354;2023-02-20T12:49:58;95722.78;;;14.36;40.04
7834;BME280;3962;42.696;23.354;2023-02-20T12:52:51;95717.31;;;14.20;39.94
7834;BME280;3962;42.696;23.354;2023-02-20T12:55:23;95720.75;;;14.38;40.10
7834;BME280;3962;42.696;23.354;2023-02-20T12:58:05;95708.16;;;14.23;40.06
7834;BME280;3962;42.696;23.354;2023-02-20T13:00:39;95712.91;;;14.11;39.86
7834;BME280;3962;42.696;23.354;2023-02-20T13:03:10;95708.03;;;14.32;40.17
7834;BME280;3962;42.696;23.354;2023-02-20T13:05:42;95714.59;;;14.38;39.42
7834;BME280;3962;42.696;23.354;2023-02-20T13:08:13;95705.47;;;14.56;39.58
7834;BME280;3962;42.696;23.354;2023-02-20T13:10:51;95690.94;;;14.25;40.07
7834;BME280;3962;42.696;23.354;2023-02-20T13:13:20;95745.66;;;14.31;39.50
7834;BME280;3962;42.696;23.354;2023-02-20T13:15:53;95727.03;;;14.21;40.12
7834;BME280;3962;42.696;23.354;2023-02-20T13:18:28;95724.34;;;14.21;40.17
7834;BME280;3962;42.696;23.354;2023-02-20T13:21:01;95747.44;;;14.48;40.25
7834;BME280;3962;42.696;23.354;2023-02-20T13:23:32;95749.06;;;14.41;40.22
7834;BME280;3962;42.696;23.354;2023-02-20T13:25:59;95710.38;;;14.35;40.43
7834;BME280;3962;42.696;23.354;2023-02-20T13:28:45;95735.63;;;14.33;40.26
7834;BME280;3962;42.696;23.354;2023-02-20T13:31:16;95723.44;;;14.13;40.38
7834;BME280;3962;42.696;23.354;2023-02-20T13:33:45;95737.03;;;13.94;40.68
7834;BME280;3962;42.696;23.354;2023-02-20T13:36:16;95742.28;;;14.03;41.51
7834;BME280;3962;42.696;23.354;2023-02-20T13:42:27;95761.13;;;15.27;39.30
7834;BME280;3962;42.696;23.354;2023-02-20T13:44:54;95769.53;;;14.83;39.55
7834;BME280;3962;42.696;23.354;2023-02-20T13:47:32;95766.50;;;14.86;39.70
7834;BME280;3962;42.696;23.354;2023-02-20T13:50:02;95751.53;;;14.34;40.84
7834;BME280;3962;42.696;23.354;2023-02-20T13:52:36;95771.22;;;14.25;41.00
7834;BME280;3962;42.696;23.354;2023-02-20T13:55:13;95747.56;;;14.46;40.79
7834;BME280;3962;42.696;23.354;2023-02-20T13:57:45;95768.31;;;14.44;41.08
7834;BME280;3962;42.696;23.354;2023-02-20T14:00:24;95752.34;;;14.60;40.40
7834;BME280;3962;42.696;23.354;2023-02-20T14:02:53;95745.56;;;14.81;40.49
7834;BME280;3962;42.696;23.354;2023-02-20T14:05:23;95742.97;;;14.56;40.59
7834;BME280;3962;42.696;23.354;2023-02-20T14:07:50;95752.03;;;14.30;40.73
7834;BME280;3962;42.696;23.354;2023-02-20T14:10:23;95748.72;;;13.93;41.86